createdAt,value
2018-06-18T00:00:39.862Z,3.83
2018-06-18T00:01:43.960Z,3.50
2018-06-18T00:02:48.048Z,3.70
2018-06-18T00:03:52.182Z,3.67
2018-06-18T00:04:56.265Z,3.70
2018-06-18T00:06:00.397Z,3.62
2018-06-18T00:07:04.528Z,3.27
2018-06-18T00:08:08.640Z,3.30
2018-06-18T00:09:14.163Z,2.87
2018-06-18T00:10:18.278Z,3.30
2018-06-18T00:11:22.398Z,3.80
2018-06-18T00:12:26.549Z,3.45
2018-06-18T00:13:30.647Z,3.85
2018-06-18T00:14:34.921Z,3.83
2018-06-18T00:15:39.006Z,3.98
2018-06-18T00:16:43.166Z,3.52
2018-06-18T00:17:47.203Z,3.70
2018-06-18T00:18:51.307Z,3.55
2018-06-18T00:19:55.577Z,3.33
2018-06-18T00:20:59.678Z,3.52
2018-06-18T00:22:03.852Z,3.50
2018-06-18T00:23:07.922Z,3.30
2018-06-18T00:24:11.753Z,3.25
2018-06-18T00:25:15.772Z,3.98
2018-06-18T00:26:19.962Z,3.35
2018-06-18T00:27:24.084Z,3.37
2018-06-18T00:28:28.206Z,3.67
2018-06-18T00:29:32.039Z,3.35
2018-06-18T00:30:35.793Z,3.27
2018-06-18T00:31:39.786Z,3.30
2018-06-18T00:32:43.883Z,3.50
2018-06-18T00:33:48.026Z,3.92
2018-06-18T00:34:52.134Z,3.75
2018-06-18T00:35:56.571Z,3.33
2018-06-18T00:37:00.706Z,3.10
2018-06-18T00:38:05.062Z,3.33
2018-06-18T00:39:09.481Z,3.30
2018-06-18T00:40:13.538Z,3.40
2018-06-18T00:41:17.640Z,3.75
2018-06-18T00:42:21.805Z,3.75
2018-06-18T00:43:25.930Z,3.45
2018-06-18T00:44:30.184Z,3.50
2018-06-18T00:45:34.256Z,3.45
2018-06-18T00:46:38.370Z,3.60
2018-06-18T00:47:42.445Z,3.27
2018-06-18T00:48:46.542Z,3.47
2018-06-18T00:49:50.645Z,3.65
2018-06-18T00:50:54.866Z,3.42
2018-06-18T00:51:58.969Z,3.47
2018-06-18T00:53:03.128Z,3.67
2018-06-18T00:54:07.220Z,3.60
2018-06-18T00:55:18.057Z,3.40
2018-06-18T00:56:22.151Z,3.47
2018-06-18T00:57:26.173Z,3.65
2018-06-18T00:58:30.327Z,4.25
2018-06-18T00:59:34.451Z,4.08
2018-06-18T01:00:38.581Z,3.92
2018-06-18T01:01:42.701Z,3.77
2018-06-18T01:02:46.776Z,3.45
2018-06-18T01:03:51.101Z,3.50
2018-06-18T01:04:55.285Z,3.60
2018-06-18T01:05:59.458Z,3.50
2018-06-18T01:07:03.567Z,3.20
2018-06-18T01:08:07.610Z,3.90
2018-06-18T01:09:12.756Z,3.40
2018-06-18T01:10:17.020Z,3.47
2018-06-18T01:11:21.106Z,3.58
2018-06-18T01:12:25.211Z,3.45
2018-06-18T01:13:29.408Z,3.75
2018-06-18T01:14:33.549Z,3.47
2018-06-18T01:15:37.837Z,3.80
2018-06-18T01:16:41.962Z,4.00
2018-06-18T01:17:46.057Z,3.60
2018-06-18T01:18:49.872Z,3.60
2018-06-18T01:19:53.895Z,3.83
2018-06-18T01:20:58.034Z,3.52
2018-06-18T01:22:02.197Z,3.60
2018-06-18T01:23:08.488Z,3.65
2018-06-18T01:24:16.793Z,3.50
2018-06-18T01:25:20.902Z,4.12
2018-06-18T01:26:25.207Z,3.85
2018-06-18T01:27:29.383Z,3.70
2018-06-18T01:28:33.484Z,3.37
2018-06-18T01:29:37.581Z,3.67
2018-06-18T01:30:47.763Z,3.15
2018-06-18T01:31:57.991Z,3.10
2018-06-18T01:33:02.194Z,3.47
2018-06-18T01:34:11.186Z,3.08
2018-06-18T01:35:15.316Z,3.40
2018-06-18T01:36:19.365Z,3.45
2018-06-18T01:37:23.507Z,3.50
2018-06-18T01:38:27.770Z,3.50
2018-06-18T01:39:31.614Z,3.45
2018-06-18T01:40:35.583Z,3.50
2018-06-18T01:41:39.729Z,3.52
2018-06-18T01:42:43.927Z,2.87
2018-06-18T01:43:48.052Z,3.40
2018-06-18T01:44:52.098Z,3.50
2018-06-18T01:45:56.165Z,3.22
2018-06-18T01:47:00.245Z,3.35
2018-06-18T01:48:04.352Z,3.72
2018-06-18T01:49:08.427Z,3.47
2018-06-18T01:50:12.587Z,3.67
2018-06-18T01:51:16.642Z,3.45
2018-06-18T01:52:20.747Z,2.85
2018-06-18T01:53:25.001Z,3.30
2018-06-18T01:54:29.158Z,3.70
2018-06-18T01:55:33.392Z,3.10
2018-06-18T01:56:37.523Z,3.35
2018-06-18T01:57:41.606Z,3.37
2018-06-18T01:58:45.757Z,2.98
2018-06-18T01:59:49.934Z,3.30
2018-06-18T02:00:53.748Z,3.58
2018-06-18T02:01:57.941Z,3.72
2018-06-18T02:03:02.095Z,3.50
2018-06-18T02:04:06.283Z,3.27
2018-06-18T02:05:10.412Z,3.83
2018-06-18T02:06:14.550Z,3.35
2018-06-18T02:07:18.676Z,3.20
2018-06-18T02:08:22.813Z,3.10
2018-06-18T02:09:26.925Z,3.35
2018-06-18T02:10:31.061Z,3.30
2018-06-18T02:11:35.201Z,3.20
2018-06-18T02:12:39.324Z,2.90
2018-06-18T02:13:43.560Z,3.45
2018-06-18T02:14:47.669Z,3.40
2018-06-18T02:15:51.835Z,3.30
2018-06-18T02:16:55.909Z,3.12
2018-06-18T02:18:00.019Z,3.10
2018-06-18T02:19:04.129Z,3.00
2018-06-18T02:20:08.280Z,3.27
2018-06-18T02:21:12.148Z,2.70
2018-06-18T02:22:16.293Z,3.50
2018-06-18T02:23:20.394Z,2.95
2018-06-18T02:24:24.473Z,3.50
2018-06-18T02:25:28.636Z,3.20
2018-06-18T02:26:32.771Z,3.37
2018-06-18T02:27:42.302Z,3.00
2018-06-18T02:28:51.864Z,3.37
2018-06-18T02:30:01.349Z,3.58
2018-06-18T02:31:10.712Z,2.90
2018-06-18T02:32:20.076Z,3.30
2018-06-18T02:33:29.454Z,3.40
2018-06-18T02:34:38.975Z,3.15
2018-06-18T02:35:48.382Z,2.90
2018-06-18T02:36:57.949Z,3.20
2018-06-18T02:38:07.524Z,3.62
2018-06-18T02:39:12.460Z,3.55
2018-06-18T02:40:21.987Z,3.35
2018-06-18T02:41:26.120Z,3.33
2018-06-18T02:42:30.292Z,3.00
2018-06-18T02:43:34.424Z,3.52
2018-06-18T02:44:38.534Z,3.35
2018-06-18T02:45:42.632Z,3.35
2018-06-18T02:46:46.753Z,3.37
2018-06-18T02:47:50.837Z,3.47
2018-06-18T02:48:55.039Z,3.25
2018-06-18T02:49:59.161Z,3.50
2018-06-18T02:51:03.397Z,3.52
2018-06-18T02:52:07.534Z,3.30
2018-06-18T02:53:11.685Z,3.12
2018-06-18T02:54:15.860Z,3.05
2018-06-18T02:55:20.025Z,2.90
2018-06-18T02:56:36.852Z,3.50
2018-06-18T02:57:41.014Z,3.58
2018-06-18T02:58:45.175Z,3.60
2018-06-18T02:59:49.284Z,3.15
2018-06-18T03:00:53.504Z,3.27
2018-06-18T03:01:57.609Z,3.08
2018-06-18T03:03:01.701Z,3.87
2018-06-18T03:04:06.148Z,3.52
2018-06-18T03:05:10.248Z,3.98
2018-06-18T03:06:14.454Z,3.37
2018-06-18T03:07:18.633Z,3.87
2018-06-18T03:08:22.758Z,3.80
2018-06-18T03:09:26.904Z,4.08
2018-06-18T03:10:31.050Z,3.90
2018-06-18T03:11:35.269Z,3.50
2018-06-18T03:12:39.396Z,3.87
2018-06-18T03:13:43.483Z,3.60
2018-06-18T03:14:47.586Z,3.83
2018-06-18T03:15:51.748Z,3.35
2018-06-18T03:16:55.905Z,3.87
2018-06-18T03:17:59.963Z,3.92
2018-06-18T03:19:09.436Z,3.90
2018-06-18T03:20:18.948Z,3.85
2018-06-18T03:21:28.394Z,3.47
2018-06-18T03:22:37.916Z,3.60
2018-06-18T03:23:47.444Z,3.35
2018-06-18T03:24:56.997Z,3.72
2018-06-18T03:26:06.625Z,3.42
2018-06-18T03:27:16.064Z,3.58
2018-06-18T03:28:25.445Z,3.80
2018-06-18T03:29:32.440Z,3.60
2018-06-18T03:30:36.520Z,3.33
2018-06-18T03:31:40.851Z,3.77
2018-06-18T03:32:45.067Z,3.75
2018-06-18T03:33:49.123Z,3.77
2018-06-18T03:34:53.298Z,4.05
2018-06-18T03:35:57.389Z,3.62
2018-06-18T03:37:01.942Z,3.75
2018-06-18T03:38:06.109Z,3.85
2018-06-18T03:39:12.531Z,3.45
2018-06-18T03:40:16.709Z,3.58
2018-06-18T03:41:20.775Z,3.67
2018-06-18T03:42:24.905Z,3.47
2018-06-18T03:43:28.966Z,3.87
2018-06-18T03:44:47.538Z,3.75
2018-06-18T03:45:51.686Z,4.00
2018-06-18T03:46:57.048Z,3.90
2018-06-18T03:48:07.278Z,4.03
2018-06-18T03:49:11.366Z,3.90
2018-06-18T03:50:15.511Z,4.55
2018-06-18T03:51:19.661Z,3.98
2018-06-18T03:52:23.758Z,3.92
2018-06-18T03:53:27.862Z,4.37
2018-06-18T03:54:32.033Z,3.80
2018-06-18T03:55:44.050Z,4.20
2018-06-18T03:56:48.309Z,3.58
2018-06-18T03:57:52.459Z,3.83
2018-06-18T03:58:56.553Z,3.65
2018-06-18T04:00:00.721Z,4.00
2018-06-18T04:01:26.375Z,4.10
2018-06-18T04:02:40.093Z,3.90
2018-06-18T04:03:50.187Z,4.17
2018-06-18T04:06:01.570Z,4.08
2018-06-18T04:07:10.948Z,3.62
2018-06-18T04:08:15.157Z,4.10
2018-06-18T04:09:24.558Z,3.92
2018-06-18T04:10:35.740Z,4.30
2018-06-18T04:11:45.355Z,3.72
2018-06-18T04:12:49.440Z,4.28
2018-06-18T04:13:53.551Z,4.03
2018-06-18T04:14:57.967Z,4.17
2018-06-18T04:16:02.133Z,4.20
2018-06-18T04:17:06.448Z,3.95
2018-06-18T04:18:10.584Z,3.98
2018-06-18T04:19:14.759Z,3.85
2018-06-18T04:20:18.894Z,4.37
2018-06-18T04:21:23.063Z,4.30
2018-06-18T04:22:27.312Z,4.10
2018-06-18T04:23:31.460Z,3.80
2018-06-18T04:24:35.580Z,4.03
2018-06-18T04:25:39.765Z,4.25
2018-06-18T04:26:43.880Z,3.87
2018-06-18T04:27:48.068Z,3.87
2018-06-18T04:28:52.158Z,4.33
2018-06-18T04:29:56.309Z,4.00
2018-06-18T04:31:00.499Z,3.87
2018-06-18T04:32:04.600Z,4.08
2018-06-18T04:33:09.167Z,3.62
2018-06-18T04:34:24.113Z,3.90
2018-06-18T04:35:28.294Z,4.03
2018-06-18T04:36:32.395Z,3.65
2018-06-18T04:37:36.758Z,4.50
2018-06-18T04:38:40.921Z,4.12
2018-06-18T04:39:45.092Z,4.40
2018-06-18T04:40:49.178Z,4.33
2018-06-18T04:41:58.735Z,4.30
2018-06-18T04:43:08.156Z,4.53
2018-06-18T04:44:17.711Z,4.55
2018-06-18T04:45:27.221Z,3.87
2018-06-18T04:46:36.790Z,4.17
2018-06-18T04:47:46.302Z,4.10
2018-06-18T04:48:55.925Z,4.05
2018-06-18T04:50:05.415Z,4.03
2018-06-18T04:51:09.594Z,3.72
2018-06-18T04:52:13.687Z,3.87
2018-06-18T04:53:17.808Z,3.87
2018-06-18T04:54:21.917Z,4.20
2018-06-18T04:55:25.977Z,4.12
2018-06-18T04:56:30.150Z,3.95
2018-06-18T04:57:34.254Z,4.00
2018-06-18T04:58:38.359Z,4.20
2018-06-18T04:59:46.806Z,4.37
2018-06-18T05:01:12.466Z,3.85
2018-06-18T05:02:16.491Z,3.90
2018-06-18T05:03:20.554Z,3.67
2018-06-18T05:04:24.705Z,4.12
2018-06-18T05:05:28.843Z,4.20
2018-06-18T05:06:33.064Z,4.28
2018-06-18T05:07:37.186Z,4.08
2018-06-18T05:09:15.704Z,4.15
2018-06-18T05:10:26.408Z,3.92
2018-06-18T05:11:30.659Z,4.17
2018-06-18T05:12:34.853Z,4.60
2018-06-18T05:13:38.947Z,4.28
2018-06-18T05:14:43.062Z,4.28
2018-06-18T05:15:47.197Z,3.92
2018-06-18T05:16:51.303Z,4.20
2018-06-18T05:17:55.431Z,4.33
2018-06-18T05:18:59.513Z,3.92
2018-06-18T05:20:03.734Z,4.58
2018-06-18T05:21:07.595Z,3.95
2018-06-18T05:22:11.635Z,4.00
2018-06-18T05:23:18.702Z,4.17
2018-06-18T05:24:22.841Z,4.03
2018-06-18T05:25:27.132Z,3.45
2018-06-18T05:26:31.966Z,4.03
2018-06-18T05:27:36.060Z,4.55
2018-06-18T05:28:40.204Z,3.75
2018-06-18T05:29:44.327Z,4.17
2018-06-18T05:30:48.482Z,3.80
2018-06-18T05:31:52.902Z,3.72
2018-06-18T05:32:57.142Z,4.20
2018-06-18T05:34:01.347Z,4.20
2018-06-18T05:35:06.492Z,4.03
2018-06-18T05:36:10.568Z,3.58
2018-06-18T05:37:17.821Z,3.77
2018-06-18T05:38:27.252Z,4.00
2018-06-18T05:39:31.387Z,3.83
2018-06-18T05:40:35.522Z,3.90
2018-06-18T05:41:39.642Z,3.83
2018-06-18T05:42:43.765Z,3.98
2018-06-18T05:43:47.873Z,3.85
2018-06-18T05:44:52.016Z,4.00
2018-06-18T05:45:55.830Z,4.20
2018-06-18T05:46:59.780Z,3.77
2018-06-18T05:48:03.904Z,4.15
2018-06-18T05:49:08.047Z,3.80
2018-06-18T05:50:12.246Z,3.22
2018-06-18T05:51:18.801Z,3.87
2018-06-18T05:52:22.850Z,3.80
2018-06-18T05:53:27.084Z,3.70
2018-06-18T05:54:31.123Z,3.62
2018-06-18T05:55:35.299Z,3.65
2018-06-18T05:56:39.498Z,3.72
2018-06-18T05:57:43.670Z,3.25
2018-06-18T05:58:47.824Z,3.30
2018-06-18T05:59:52.034Z,3.60
2018-06-18T06:00:56.200Z,3.33
2018-06-18T06:02:00.263Z,3.42
2018-06-18T06:03:04.485Z,2.87
2018-06-18T06:04:08.540Z,2.70
2018-06-18T06:05:12.748Z,2.60
2018-06-18T06:06:16.919Z,2.72
2018-06-18T06:07:21.064Z,2.98
2018-06-18T06:08:25.218Z,2.98
2018-06-18T06:09:29.409Z,2.87
2018-06-18T06:10:33.804Z,2.75
2018-06-18T06:11:38.170Z,3.12
2018-06-18T06:12:42.435Z,2.90
2018-06-18T06:13:46.627Z,2.52
2018-06-18T06:14:50.792Z,2.77
2018-06-18T06:15:54.989Z,3.00
2018-06-18T06:16:59.244Z,2.60
2018-06-18T06:18:03.428Z,2.45
2018-06-18T06:19:07.478Z,2.70
2018-06-18T06:20:11.562Z,2.50
2018-06-18T06:21:16.216Z,2.52
2018-06-18T06:22:20.409Z,2.60
2018-06-18T06:23:24.534Z,2.50
2018-06-18T06:24:28.781Z,2.60
2018-06-18T06:25:33.022Z,3.15
2018-06-18T06:26:37.154Z,2.92
2018-06-18T06:27:41.234Z,3.27
2018-06-18T06:28:45.413Z,3.20
2018-06-18T06:29:49.502Z,3.08
2018-06-18T06:30:53.822Z,3.08
2018-06-18T06:31:57.940Z,3.10
2018-06-18T06:33:01.987Z,2.90
2018-06-18T06:34:06.123Z,3.22
2018-06-18T06:35:16.443Z,3.00
2018-06-18T06:36:23.211Z,3.20
2018-06-18T06:37:27.624Z,3.77
2018-06-18T06:38:31.706Z,3.33
2018-06-18T06:39:35.819Z,3.08
2018-06-18T06:40:40.344Z,2.92
2018-06-18T06:41:46.242Z,3.27
2018-06-18T06:42:50.319Z,2.80
2018-06-18T06:43:55.009Z,2.80
2018-06-18T06:44:59.252Z,2.33
2018-06-18T06:46:03.373Z,2.80
2018-06-18T06:47:07.454Z,2.42
2018-06-18T06:48:11.582Z,2.27
2018-06-18T06:49:21.591Z,2.60
2018-06-18T06:50:25.708Z,2.58
2018-06-18T06:51:29.888Z,2.90
2018-06-18T06:52:33.986Z,2.65
2018-06-18T06:53:38.113Z,2.98
2018-06-18T06:54:42.201Z,3.10
2018-06-18T06:55:46.001Z,2.50
2018-06-18T06:56:49.731Z,2.67
2018-06-18T06:57:53.697Z,3.72
2018-06-18T06:58:57.883Z,2.85
2018-06-18T07:00:02.851Z,2.83
2018-06-18T07:01:06.994Z,2.70
2018-06-18T07:02:11.179Z,2.80
2018-06-18T07:03:15.280Z,3.15
2018-06-18T07:04:19.463Z,3.30
2018-06-18T07:05:23.610Z,3.00
2018-06-18T07:06:27.692Z,3.02
2018-06-18T07:07:31.921Z,2.95
2018-06-18T07:08:36.061Z,2.98
2018-06-18T07:09:40.115Z,2.92
2018-06-18T07:10:44.433Z,2.75
2018-06-18T07:11:48.635Z,2.45
2018-06-18T07:12:52.761Z,2.70
2018-06-18T07:13:56.926Z,2.65
2018-06-18T07:15:01.055Z,2.80
2018-06-18T07:16:05.320Z,2.70
2018-06-18T07:17:09.395Z,2.47
2018-06-18T07:18:13.530Z,2.95
2018-06-18T07:19:17.624Z,2.50
2018-06-18T07:20:21.871Z,2.87
2018-06-18T07:21:25.911Z,2.58
2018-06-18T07:22:29.713Z,2.77
2018-06-18T07:23:33.742Z,2.87
2018-06-18T07:24:37.859Z,3.02
2018-06-18T07:25:42.044Z,3.10
2018-06-18T07:26:46.145Z,2.83
2018-06-18T07:27:50.287Z,2.65
2018-06-18T07:28:54.402Z,2.70
2018-06-18T07:29:58.195Z,2.58
2018-06-18T07:31:02.182Z,2.80
2018-06-18T07:32:06.339Z,3.00
2018-06-18T07:33:10.425Z,2.77
2018-06-18T07:34:14.480Z,2.67
2018-06-18T07:35:18.594Z,2.55
2018-06-18T07:36:22.704Z,2.90
2018-06-18T07:37:26.764Z,2.65
2018-06-18T07:38:30.933Z,2.55
2018-06-18T07:39:34.957Z,2.60
2018-06-18T07:40:39.360Z,2.22
2018-06-18T07:41:43.451Z,2.70
2018-06-18T07:42:47.594Z,2.72
2018-06-18T07:43:51.797Z,2.22
2018-06-18T07:44:55.973Z,2.60
2018-06-18T07:46:00.244Z,2.80
2018-06-18T07:47:04.351Z,2.77
2018-06-18T07:48:08.529Z,2.87
2018-06-18T07:49:12.621Z,2.45
2018-06-18T07:50:16.864Z,2.60
2018-06-18T07:51:21.032Z,2.67
2018-06-18T07:52:25.093Z,2.77
2018-06-18T07:53:29.182Z,2.83
2018-06-18T07:54:33.311Z,2.58
2018-06-18T07:55:37.402Z,2.70
2018-06-18T07:56:41.542Z,2.27
2018-06-18T07:57:45.604Z,2.40
2018-06-18T07:58:49.447Z,2.58
2018-06-18T07:59:53.443Z,2.55
2018-06-18T08:00:57.606Z,2.85
2018-06-18T08:02:01.694Z,3.08
2018-06-18T08:03:06.178Z,2.52
2018-06-18T08:04:10.318Z,2.80
2018-06-18T08:05:14.459Z,3.10
2018-06-18T08:06:18.500Z,2.45
2018-06-18T08:07:22.571Z,2.45
2018-06-18T08:08:26.714Z,2.40
2018-06-18T08:09:30.842Z,2.70
2018-06-18T08:10:34.970Z,2.85
2018-06-18T08:11:39.086Z,2.60
2018-06-18T08:12:43.255Z,2.70
2018-06-18T08:13:47.347Z,2.60
2018-06-18T08:14:51.440Z,2.95
2018-06-18T08:15:55.601Z,2.75
2018-06-18T08:16:59.746Z,2.80
2018-06-18T08:18:03.879Z,2.30
2018-06-18T08:19:07.800Z,2.90
2018-06-18T08:20:15.068Z,2.80
2018-06-18T08:21:19.205Z,2.50
2018-06-18T08:22:24.074Z,2.67
2018-06-18T08:23:27.944Z,2.55
2018-06-18T08:24:31.977Z,2.87
2018-06-18T08:25:36.073Z,2.45
2018-06-18T08:26:40.215Z,2.95
2018-06-18T08:27:44.298Z,2.95
2018-06-18T08:28:48.430Z,2.60
2018-06-18T08:29:52.512Z,2.65
2018-06-18T08:30:57.305Z,2.42
2018-06-18T08:32:01.274Z,2.72
2018-06-18T08:33:05.738Z,2.60
2018-06-18T08:34:09.809Z,2.85
2018-06-18T08:35:13.977Z,2.58
2018-06-18T08:36:18.076Z,2.72
2018-06-18T08:38:32.384Z,2.50
2018-06-18T08:39:36.589Z,2.60
2018-06-18T08:40:40.737Z,2.90
2018-06-18T08:41:44.850Z,2.40
2018-06-18T08:42:49.046Z,2.80
2018-06-18T08:43:53.484Z,2.90
2018-06-18T08:44:57.629Z,2.58
2018-06-18T08:46:01.831Z,2.45
2018-06-18T08:47:06.116Z,2.42
2018-06-18T08:48:10.420Z,2.70
2018-06-18T08:49:14.643Z,2.60
2018-06-18T08:50:24.097Z,2.33
2018-06-18T08:51:33.640Z,3.08
2018-06-18T08:52:43.279Z,2.83
2018-06-18T08:53:52.865Z,2.45
2018-06-18T08:55:02.407Z,2.67
2018-06-18T08:56:11.933Z,2.60
2018-06-18T08:57:21.401Z,2.33
2018-06-18T08:58:30.897Z,2.25
2018-06-18T08:59:40.427Z,2.52
2018-06-18T09:00:49.981Z,2.30
2018-06-18T09:01:54.920Z,2.50
2018-06-18T09:03:04.542Z,2.15
2018-06-18T09:04:14.053Z,2.58
2018-06-18T09:05:22.175Z,2.70
2018-06-18T09:06:26.280Z,2.70
2018-06-18T09:07:31.622Z,2.70
2018-06-18T09:08:39.920Z,2.75
2018-06-18T09:09:44.973Z,2.67
2018-06-18T09:10:49.289Z,2.67
2018-06-18T09:11:53.416Z,2.85
2018-06-18T09:12:57.598Z,3.05
2018-06-18T09:14:01.745Z,3.02
2018-06-18T09:15:06.338Z,2.77
2018-06-18T09:16:10.525Z,2.60
2018-06-18T09:17:14.659Z,2.72
2018-06-18T09:18:18.796Z,3.00
2018-06-18T09:19:22.937Z,2.72
2018-06-18T09:20:27.063Z,3.00
2018-06-18T09:21:31.239Z,2.72
2018-06-18T09:22:35.047Z,2.70
2018-06-18T09:23:39.161Z,2.70
2018-06-18T09:24:43.277Z,2.52
2018-06-18T09:25:52.827Z,2.87
2018-06-18T09:27:02.371Z,2.52
2018-06-18T09:28:06.465Z,2.50
2018-06-18T09:29:10.542Z,2.72
2018-06-18T09:30:14.634Z,2.62
2018-06-18T09:31:18.889Z,2.60
2018-06-18T09:32:23.139Z,2.47
2018-06-18T09:33:27.103Z,2.67
2018-06-18T09:34:31.287Z,3.12
2018-06-18T09:35:35.433Z,2.60
2018-06-18T09:36:39.533Z,2.92
2018-06-18T09:37:43.660Z,2.90
2018-06-18T09:38:47.770Z,2.65
2018-06-18T09:39:51.936Z,2.72
2018-06-18T09:40:56.125Z,2.75
2018-06-18T09:42:00.221Z,3.05
2018-06-18T09:43:04.385Z,3.12
2018-06-18T09:44:08.277Z,2.40
2018-06-18T09:45:12.321Z,3.17
2018-06-18T09:46:16.448Z,2.70
2018-06-18T09:47:20.601Z,2.90
2018-06-18T09:48:29.715Z,2.90
2018-06-18T09:49:39.298Z,3.05
2018-06-18T09:50:49.277Z,3.30
2018-06-18T09:51:59.330Z,3.00
2018-06-18T09:53:09.281Z,2.70
2018-06-18T09:54:19.233Z,2.65
2018-06-18T09:56:26.596Z,2.83
2018-06-18T09:57:36.173Z,2.95
2018-06-18T09:58:45.604Z,3.05
2018-06-18T09:59:55.342Z,3.17
2018-06-18T10:01:13.969Z,3.05
2018-06-18T10:02:18.160Z,2.70
2018-06-18T10:03:23.281Z,2.80
2018-06-18T10:04:28.025Z,3.58
2018-06-18T10:05:32.362Z,3.47
2018-06-18T10:06:37.829Z,3.07
2018-06-18T10:07:41.976Z,2.85
2018-06-18T10:08:46.250Z,2.87
2018-06-18T10:09:50.380Z,2.80
2018-06-18T10:10:55.082Z,2.98
2018-06-18T10:11:59.292Z,2.80
2018-06-18T10:13:03.491Z,2.60
2018-06-18T10:14:09.469Z,3.00
2018-06-18T10:15:14.652Z,3.20
2018-06-18T10:16:18.797Z,3.10
2018-06-18T10:17:22.967Z,2.60
2018-06-18T10:18:27.199Z,3.10
2018-06-18T10:19:31.832Z,2.80
2018-06-18T10:20:36.156Z,2.70
2018-06-18T10:21:40.254Z,2.80
2018-06-18T10:22:44.427Z,2.70
2018-06-18T10:23:49.603Z,3.00
2018-06-18T10:24:53.759Z,3.27
2018-06-18T10:25:57.952Z,2.63
2018-06-18T10:27:02.080Z,3.20
2018-06-18T10:28:06.579Z,2.80
2018-06-18T10:29:11.324Z,3.17
2018-06-18T10:30:15.523Z,2.93
2018-06-18T10:31:20.416Z,2.77
2018-06-18T10:32:30.022Z,2.50
2018-06-18T10:33:39.581Z,2.50
2018-06-18T10:34:48.974Z,2.40
2018-06-18T10:35:58.294Z,2.67
2018-06-18T10:37:07.760Z,2.70
2018-06-18T10:38:17.159Z,2.40
2018-06-18T10:39:26.620Z,2.93
2018-06-18T10:40:36.163Z,2.60
2018-06-18T10:41:45.654Z,2.70
2018-06-18T10:42:55.096Z,2.60
2018-06-18T10:43:59.225Z,2.60
2018-06-18T10:45:03.755Z,2.80
2018-06-18T10:46:07.964Z,2.50
2018-06-18T10:47:12.562Z,2.50
2018-06-18T10:48:17.413Z,2.37
2018-06-18T10:49:21.599Z,2.80
2018-06-18T10:50:25.836Z,2.40
2018-06-18T10:51:30.044Z,2.30
2018-06-18T10:52:34.501Z,2.17
2018-06-18T10:53:38.549Z,2.63
2018-06-18T10:54:42.748Z,2.60
2018-06-18T10:55:47.005Z,2.50
2018-06-18T10:56:51.123Z,2.20
2018-06-18T10:57:55.236Z,2.30
2018-06-18T10:58:59.441Z,2.00
2018-06-18T11:00:05.445Z,2.30
2018-06-18T11:01:12.031Z,2.60
2018-06-18T11:02:16.174Z,2.10
2018-06-18T11:03:20.852Z,2.37
2018-06-18T11:04:28.961Z,2.63
2018-06-18T11:05:38.569Z,2.20
2018-06-18T11:06:42.694Z,2.50
2018-06-18T11:07:46.840Z,2.27
2018-06-18T11:08:51.000Z,2.33
2018-06-18T11:09:55.143Z,2.10
2018-06-18T11:10:59.245Z,2.40
2018-06-18T11:12:03.370Z,2.40
2018-06-18T11:13:07.616Z,2.40
2018-06-18T11:14:11.831Z,2.60
2018-06-18T11:15:16.377Z,2.13
2018-06-18T11:16:20.663Z,2.70
2018-06-18T11:17:30.185Z,2.63
2018-06-18T11:18:39.710Z,2.30
2018-06-18T11:19:49.338Z,2.20
2018-06-18T11:20:58.930Z,2.13
2018-06-18T11:22:05.250Z,2.80
2018-06-18T11:23:14.747Z,2.27
2018-06-18T11:24:24.283Z,2.40
2018-06-18T11:26:41.265Z,2.30
2018-06-18T11:27:45.429Z,2.07
2018-06-18T11:28:49.633Z,2.60
2018-06-18T11:29:53.411Z,2.30
2018-06-18T11:30:57.339Z,2.40
2018-06-18T11:32:01.441Z,2.60
2018-06-18T11:33:05.557Z,2.20
2018-06-18T11:34:09.675Z,2.10
2018-06-18T11:35:13.825Z,2.57
2018-06-18T11:36:17.979Z,2.50
2018-06-18T11:37:22.084Z,2.20
2018-06-18T11:38:26.191Z,2.23
2018-06-18T11:39:30.385Z,2.27
2018-06-18T11:40:34.598Z,2.00
2018-06-18T11:41:38.689Z,2.40
2018-06-18T11:42:42.827Z,2.13
2018-06-18T11:43:47.034Z,2.20
2018-06-18T11:44:51.089Z,2.23
2018-06-18T11:45:55.300Z,2.50
2018-06-18T11:46:59.447Z,2.60
2018-06-18T11:48:16.298Z,2.23
2018-06-18T11:49:20.416Z,2.10
2018-06-18T11:50:24.498Z,2.20
2018-06-18T11:51:28.620Z,2.27
2018-06-18T11:52:32.804Z,2.30
2018-06-18T11:53:36.931Z,2.40
2018-06-18T11:54:41.226Z,2.03
2018-06-18T11:55:45.388Z,2.20
2018-06-18T11:56:49.507Z,1.90
2018-06-18T11:57:53.605Z,1.77
2018-06-18T11:59:03.057Z,2.10
2018-06-18T12:00:12.682Z,1.97
2018-06-18T12:01:22.180Z,2.60
2018-06-18T12:02:31.868Z,2.30
2018-06-18T12:03:41.539Z,2.00
2018-06-18T12:04:51.042Z,2.03
2018-06-18T12:06:00.501Z,2.30
2018-06-18T12:08:07.614Z,2.20
2018-06-18T12:09:17.349Z,2.10
2018-06-18T12:10:21.291Z,2.20
2018-06-18T12:11:25.310Z,2.30
2018-06-18T12:12:29.452Z,2.00
2018-06-18T12:13:33.349Z,2.27
2018-06-18T12:14:37.338Z,2.80
2018-06-18T12:15:41.477Z,2.20
2018-06-18T12:16:45.709Z,2.10
2018-06-18T12:17:49.830Z,2.00
2018-06-18T12:18:54.075Z,2.40
2018-06-18T12:19:58.016Z,1.93
2018-06-18T12:21:02.070Z,2.20
2018-06-18T12:22:06.241Z,2.10
2018-06-18T12:23:10.342Z,1.93
2018-06-18T12:24:14.717Z,2.30
2018-06-18T12:25:18.903Z,2.33
2018-06-18T12:26:22.799Z,2.30
2018-06-18T12:27:29.300Z,1.77
2018-06-18T12:28:33.792Z,2.00
2018-06-18T12:29:37.965Z,1.83
2018-06-18T12:30:42.274Z,2.00
2018-06-18T12:31:47.011Z,1.87
2018-06-18T12:32:51.179Z,1.93
2018-06-18T12:33:55.228Z,2.00
2018-06-18T12:34:59.301Z,2.03
2018-06-18T12:36:03.211Z,2.00
2018-06-18T12:37:07.236Z,2.17
2018-06-18T12:38:11.237Z,2.13
2018-06-18T12:39:15.047Z,1.90
2018-06-18T12:40:19.082Z,2.00
2018-06-18T12:41:23.326Z,2.03
2018-06-18T12:42:28.377Z,2.00
2018-06-18T12:43:36.032Z,2.10
2018-06-18T12:44:46.062Z,2.10
2018-06-18T12:45:58.226Z,2.30
2018-06-18T12:47:07.755Z,2.17
2018-06-18T12:48:17.565Z,2.10
2018-06-18T12:49:28.126Z,2.50
2018-06-18T12:50:37.608Z,2.50
2018-06-18T12:51:47.254Z,2.40
2018-06-18T12:52:56.762Z,2.60
2018-06-18T12:54:06.141Z,2.67
2018-06-18T12:55:15.741Z,2.30
2018-06-18T12:57:22.977Z,2.20
2018-06-18T12:58:27.184Z,1.93
2018-06-18T12:59:31.291Z,2.20
2018-06-18T13:00:35.490Z,2.10
2018-06-18T13:01:57.186Z,2.00
2018-06-18T13:03:05.987Z,2.10
2018-06-18T13:04:10.576Z,2.10
2018-06-18T13:05:14.433Z,1.93
2018-06-18T13:06:21.347Z,2.03
2018-06-18T13:07:26.056Z,2.00
2018-06-18T13:08:30.713Z,2.00
2018-06-18T13:09:34.851Z,2.00
2018-06-18T13:10:38.970Z,1.80
2018-06-18T13:11:43.125Z,1.87
2018-06-18T13:12:47.252Z,1.90
2018-06-18T13:13:51.573Z,2.30
2018-06-18T13:14:55.709Z,1.70
2018-06-18T13:16:00.800Z,2.20
2018-06-18T13:17:05.524Z,2.00
2018-06-18T13:18:09.817Z,1.90
2018-06-18T13:19:14.390Z,1.90
2018-06-18T13:20:18.902Z,1.97
2018-06-18T13:21:23.194Z,2.10
2018-06-18T13:22:27.409Z,1.63
2018-06-18T13:23:32.054Z,2.10
2018-06-18T13:24:36.187Z,2.10
2018-06-18T13:25:41.031Z,1.77
2018-06-18T13:26:45.281Z,2.10
2018-06-18T13:27:54.787Z,1.80
2018-06-18T13:28:59.079Z,2.10
2018-06-18T13:30:03.441Z,1.90
2018-06-18T13:31:08.298Z,1.90
2018-06-18T13:32:12.609Z,1.90
2018-06-18T13:33:16.888Z,1.90
2018-06-18T13:34:21.104Z,1.73
2018-06-18T13:35:26.344Z,1.70
2018-06-18T13:36:30.439Z,1.70
2018-06-18T13:37:40.090Z,1.77
2018-06-18T13:38:52.339Z,2.07
2018-06-18T13:40:01.923Z,1.90
2018-06-18T13:41:11.748Z,1.80
2018-06-18T13:42:22.624Z,2.23
2018-06-18T13:43:32.173Z,2.17
2018-06-18T13:44:41.891Z,1.70
2018-06-18T13:45:48.419Z,2.00
2018-06-18T13:46:58.192Z,2.20
2018-06-18T13:48:07.833Z,2.00
2018-06-18T13:49:11.970Z,2.03
2018-06-18T13:50:16.565Z,1.73
2018-06-18T13:51:20.695Z,1.73
2018-06-18T13:52:26.107Z,2.00
2018-06-18T13:53:30.484Z,1.90
2018-06-18T13:54:34.643Z,2.00
2018-06-18T13:55:39.211Z,1.90
2018-06-18T13:56:44.278Z,2.00
2018-06-18T13:57:49.181Z,1.80
2018-06-18T13:58:54.603Z,1.97
2018-06-18T13:59:58.465Z,1.87
2018-06-18T14:01:02.694Z,1.77
2018-06-18T14:02:06.816Z,1.73
2018-06-18T14:03:11.499Z,1.80
2018-06-18T14:04:15.654Z,2.10
2018-06-18T14:05:20.631Z,2.17
2018-06-18T14:06:24.837Z,1.70
2018-06-18T14:07:28.992Z,2.30
2018-06-18T14:08:33.133Z,1.83
2018-06-18T14:09:37.277Z,1.80
2018-06-18T14:10:41.467Z,1.70
2018-06-18T14:11:45.734Z,1.70
2018-06-18T14:12:49.861Z,1.93
2018-06-18T14:13:54.735Z,1.70
2018-06-18T14:14:58.960Z,1.70
2018-06-18T14:16:03.590Z,1.83
2018-06-18T14:17:08.224Z,1.90
2018-06-18T14:18:12.094Z,1.90
2018-06-18T14:19:21.559Z,1.90
2018-06-18T14:20:26.779Z,1.80
2018-06-18T14:21:30.971Z,1.90
2018-06-18T14:22:35.129Z,1.80
2018-06-18T14:23:39.310Z,2.10
2018-06-18T14:24:43.805Z,1.80
2018-06-18T14:25:47.929Z,1.83
2018-06-18T14:26:52.597Z,2.00
2018-06-18T14:27:56.775Z,1.77
2018-06-18T14:29:00.926Z,1.70
2018-06-18T14:30:10.716Z,1.80
2018-06-18T14:31:20.212Z,1.87
2018-06-18T14:32:29.879Z,1.60
2018-06-18T14:33:39.347Z,1.70
2018-06-18T14:34:48.963Z,1.73
2018-06-18T14:35:58.738Z,1.70